Time;durP1;ratioP1;P1;durP2;ratioP2;P2;SDS_P1;SDS_P2;PMS_P1;PMS_P2;Temp;Humidity;BMP_temperature;BMP_pressure;BME280_temperature;BME280_humidity;BME280_pressure;Samples;Min_cycle;Max_cycle;Signal;HPM_P1;HPM_P2
2023/09/06 00:04:25;;;;;;;6.75;6.15;;;14.20;99.90;;;15.04;92.35;98337.09;10361752;22;20705;-71
2023/09/06 00:09:29;;;;;;;7.07;6.38;;;14.10;99.90;;;14.98;93.11;98334.25;10355056;28;20227;-71
2023/09/06 00:14:32;;;;;;;6.88;6.18;;;14.10;99.90;;;14.97;92.70;98337.66;10332125;28;20223;-71
2023/09/06 00:19:37;;;;;;;8.07;6.10;;;14.10;99.90;;;14.94;92.96;98329.78;10321656;28;20313;-72
2023/09/06 00:24:40;;;;;;;6.95;6.25;;;14.10;99.90;;;14.85;93.44;98328.53;10307373;28;20675;-72
2023/09/06 00:29:46;;;;;;;6.85;6.25;;;13.90;99.90;;;14.85;92.68;98327.63;10305103;28;20632;-71
2023/09/06 00:34:50;;;;;;;7.32;6.57;;;14.00;99.90;;;14.77;93.69;98331.53;10304768;28;20219;-71
2023/09/06 00:39:53;;;;;;;6.22;5.65;;;13.90;99.90;;;14.72;93.79;98330.44;10302785;28;20266;-71
2023/09/06 00:44:57;;;;;;;6.63;6.03;;;13.80;99.90;;;14.62;93.52;98329.09;10304799;28;20318;-71
2023/09/06 00:50:01;;;;;;;6.75;6.07;;;13.70;99.90;;;14.68;93.26;98329.41;10305751;28;20246;-71
2023/09/06 00:55:06;;;;;;;8.00;6.85;;;13.70;99.90;;;14.39;94.29;98326.25;10301912;28;20643;-71
2023/09/06 01:00:17;;;;;;;7.03;6.32;;;13.60;99.90;;;14.39;94.60;98322.78;10304114;28;20235;-71
2023/09/06 01:05:50;;;;;;;6.97;6.38;;;13.50;99.90;;;14.30;94.88;98318.06;10311944;28;20374;-72
2023/09/06 01:10:53;;;;;;;7.15;6.53;;;13.40;99.90;;;14.27;95.17;98327.31;10301800;28;20305;-71
2023/09/06 01:15:57;;;;;;;7.22;6.53;;;13.40;99.90;;;14.24;95.38;98320.34;10304573;28;20304;-71
2023/09/06 01:21:07;;;;;;;7.25;6.55;;;13.40;99.90;;;14.22;95.35;98326.19;10304889;28;20223;-71
2023/09/06 01:26:12;;;;;;;7.43;6.63;;;13.30;99.90;;;14.21;95.86;98320.19;10300507;28;20227;-71
2023/09/06 01:31:16;;;;;;;7.60;7.00;;;13.40;99.90;;;14.21;94.84;98317.63;10301095;28;20237;-72
2023/09/06 01:36:20;;;;;;;6.95;6.35;;;13.40;99.90;;;14.14;95.94;98320.69;10299742;28;20254;-72
2023/09/06 01:41:24;;;;;;;8.07;7.28;;;13.30;99.90;;;14.16;96.69;98313.91;10300077;28;20244;-71
2023/09/06 01:46:27;;;;;;;7.00;6.43;;;13.40;99.90;;;14.19;93.78;98319.22;10303369;28;20333;-71
2023/09/06 01:51:32;;;;;;;6.70;6.10;;;13.20;99.90;;;14.05;92.80;98315.06;10311209;28;20687;-72
2023/09/06 01:56:36;;;;;;;6.57;5.97;;;13.00;99.90;;;13.94;92.49;98314.53;10312090;28;20227;-71
2023/09/06 02:01:40;;;;;;;6.75;5.97;;;12.80;99.90;;;13.74;92.94;98316.97;10299542;28;20239;-72
2023/09/06 02:06:44;;;;;;;6.85;6.10;;;12.80;99.90;;;13.71;93.83;98313.34;10303385;28;20266;-71
2023/09/06 02:11:49;;;;;;;7.03;6.38;;;12.70;99.90;;;13.67;93.56;98308.84;10301644;28;20227;-72
2023/09/06 02:16:52;;;;;;;6.88;6.18;;;12.60;99.90;;;13.56;92.94;98309.97;10299766;28;20374;-71
2023/09/06 02:21:55;;;;;;;6.70;6.15;;;12.50;99.90;;;13.39;94.68;98312.56;10306398;28;20226;-72
2023/09/06 02:27:00;;;;;;;6.45;5.95;;;12.40;99.90;;;13.26;95.48;98315.25;10295586;28;20310;-71
2023/09/06 02:32:03;;;;;;;7.45;6.75;;;12.40;99.90;;;13.24;95.31;98311.69;10302657;28;20243;-71
2023/09/06 02:37:07;;;;;;;7.22;6.53;;;12.40;99.90;;;13.13;96.56;98308.53;10305245;28;20227;-71
2023/09/06 02:42:12;;;;;;;7.53;6.82;;;12.30;99.90;;;13.14;96.91;98306.88;10303350;28;20235;-71
2023/09/06 02:47:16;;;;;;;7.63;6.85;;;12.30;99.90;;;13.18;96.83;98312.22;10309880;28;20361;-72
2023/09/06 02:52:28;;;;;;;7.07;6.47;;;12.30;99.90;;;13.10;95.88;98317.75;10302574;28;20254;-72
2023/09/06 02:57:34;;;;;;;7.40;6.70;;;12.30;99.90;;;13.03;97.13;98319.09;10303485;28;20226;-72
2023/09/06 03:02:38;;;;;;;7.63;6.85;;;12.20;99.90;;;13.03;96.88;98317.41;10297651;28;20638;-71
2023/09/06 03:07:42;;;;;;;8.05;7.35;;;12.20;99.90;;;13.01;97.36;98329.28;10304379;28;20226;-71
2023/09/06 03:12:48;;;;;;;7.72;7.13;;;12.20;99.90;;;13.00;96.77;98322.38;10298081;28;20238;-71
2023/09/06 03:17:51;;;;;;;7.85;7.15;;;12.20;99.90;;;12.99;97.23;98324.84;10300414;28;20242;-72
2023/09/06 03:22:58;;;;;;;9.02;6.93;;;12.10;99.90;;;12.95;97.09;98322.94;10302005;28;20588;-71
2023/09/06 03:28:04;;;;;;;9.15;8.35;;;12.20;99.90;;;12.95;97.17;98318.69;10300151;28;20289;-71
2023/09/06 03:33:08;;;;;;;7.53;6.93;;;12.20;99.90;;;13.00;97.46;98317.25;10301155;28;20842;-71
2023/09/06 03:38:15;;;;;;;8.48;7.55;;;12.20;99.90;;;13.01;96.90;98319.00;10300086;28;20604;-71
2023/09/06 03:43:29;;;;;;;7.90;7.10;;;12.20;99.90;;;13.00;96.73;98313.81;10306529;28;20738;-71
2023/09/06 03:48:32;;;;;;;8.25;7.43;;;12.10;99.90;;;12.90;96.99;98321.78;10318667;28;20227;-71
2023/09/06 03:53:37;;;;;;;8.48;7.65;;;12.10;99.90;;;12.91;97.44;98316.75;10304820;28;20227;-72
2023/09/06 03:58:43;;;;;;;7.70;6.97;;;12.10;99.90;;;12.90;97.57;98314.97;10306076;28;20223;-71
2023/09/06 04:03:50;;;;;;;8.23;7.50;;;12.10;99.90;;;12.92;97.83;98315.94;10310539;28;20305;-71
2023/09/06 04:08:54;;;;;;;7.80;7.05;;;12.00;99.90;;;12.85;97.61;98313.84;10309978;28;20281;-70
2023/09/06 04:13:59;;;;;;;8.07;7.38;;;12.00;99.90;;;12.71;96.78;98314.78;10309147;28;20289;-71
2023/09/06 04:19:02;;;;;;;8.38;7.55;;;11.90;99.90;;;12.66;97.99;98326.44;10307775;28;20318;-71
2023/09/06 04:24:08;;;;;;;7.95;6.82;;;11.80;99.90;;;12.67;96.92;98320.50;10312520;28;20608;-70
2023/09/06 04:29:12;;;;;;;8.82;8.02;;;11.80;99.90;;;12.55;98.39;98326.72;10304577;28;20250;-70
2023/09/06 04:34:16;;;;;;;8.80;8.10;;;11.80;99.90;;;12.59;99.21;98327.75;10304401;28;20611;-71
2023/09/06 04:39:20;;;;;;;8.25;7.53;;;11.80;99.90;;;12.66;98.71;98334.13;10304753;28;20793;-70
2023/09/06 04:44:24;;;;;;;8.60;7.80;;;11.90;99.90;;;12.74;97.97;98338.91;10305943;28;20239;-71
2023/09/06 04:49:28;;;;;;;8.80;7.88;;;11.90;99.90;;;12.70;98.61;98336.06;10299936;28;20729;-71
2023/09/06 04:54:32;;;;;;;9.27;8.32;;;11.90;99.90;;;12.77;99.45;98327.94;10311871;28;20258;-71
2023/09/06 04:59:37;;;;;;;8.88;8.18;;;12.10;99.90;;;12.75;99.31;98326.94;10306565;28;20322;-71
2023/09/06 05:04:42;;;;;;;9.13;8.13;;;12.10;99.90;;;12.86;99.22;98323.31;10310248;28;20757;-71
2023/09/06 05:09:45;;;;;;;8.93;8.13;;;12.10;99.90;;;12.99;98.65;98330.91;10311519;28;20310;-72
2023/09/06 05:14:50;;;;;;;9.30;8.40;;;12.30;99.90;;;13.00;98.90;98335.22;10307443;28;20231;-72
2023/09/06 05:19:53;;;;;;;8.60;7.90;;;12.30;99.90;;;13.08;98.74;98331.41;10304563;28;20238;-72
2023/09/06 05:24:56;;;;;;;9.75;8.77;;;12.40;99.90;;;13.16;98.47;98328.34;10308597;28;20375;-72
2023/09/06 05:30:01;;;;;;;8.57;7.78;;;12.50;99.90;;;13.35;97.88;98331.16;10301837;28;20223;-71
2023/09/06 05:35:06;;;;;;;9.32;8.52;;;12.60;99.90;;;13.44;97.69;98329.06;10304168;28;20669;-71
2023/09/06 05:40:12;;;;;;;10.07;9.13;;;12.70;99.90;;;13.76;96.10;98329.88;10305418;28;20278;-71
2023/09/06 05:45:18;;;;;;;10.73;8.45;;;12.90;99.90;;;14.46;94.21;98348.00;10301426;28;20240;-70
2023/09/06 05:50:22;;;;;;;8.40;7.60;;;13.50;99.90;;;15.50;88.38;98339.22;10308314;28;20237;-71
2023/09/06 05:55:25;;;;;;;8.35;7.50;;;14.40;99.90;;;16.29;82.23;98341.00;10326274;28;20234;-71
2023/09/06 06:00:30;;;;;;;8.43;7.63;;;15.00;99.90;;;17.05;79.31;98341.59;10322451;28;20230;-71
2023/09/06 06:05:36;;;;;;;8.27;7.57;;;15.60;99.90;;;18.13;74.37;98343.00;10327075;28;20698;-71
2023/09/06 06:10:40;;;;;;;6.50;5.90;;;16.40;99.90;;;18.96;68.41;98349.28;10322461;28;20230;-71
2023/09/06 06:15:44;;;;;;;8.35;7.35;;;16.80;99.90;;;18.87;68.46;98344.69;10309546;28;20234;-72
2023/09/06 06:20:48;;;;;;;6.72;6.03;;;16.80;99.90;;;18.88;66.93;98356.78;10312747;28;20231;-70
2023/09/06 06:25:51;;;;;;;7.45;6.70;;;17.10;99.90;;;19.42;65.80;98355.00;10313956;28;20776;-71
2023/09/06 06:30:56;;;;;;;7.15;6.20;;;17.50;99.90;;;20.14;62.97;98365.75;10323140;28;20840;-70
2023/09/06 06:35:59;;;;;;;7.57;6.88;;;18.20;99.90;;;20.13;62.76;98363.13;10306837;28;20315;-70
2023/09/06 06:41:03;;;;;;;6.93;6.32;;;18.30;99.90;;;20.17;65.45;98352.91;10315899;28;20314;-70
2023/09/06 06:46:25;;;;;;;6.35;5.75;;;18.30;99.90;;;21.22;60.89;98352.91;10317877;28;20231;-70
2023/09/06 06:51:31;;;;;;;7.20;6.45;;;19.20;99.90;;;21.73;58.20;98352.31;10321037;28;20844;-70
2023/09/06 06:56:35;;;;;;;7.82;6.32;;;19.60;99.90;;;22.02;56.25;98353.78;10323561;28;20706;-70
2023/09/06 07:01:39;;;;;;;7.53;6.38;;;20.30;99.90;;;22.41;56.30;98354.56;10324582;28;20253;-70
2023/09/06 07:06:43;;;;;;;7.07;6.47;;;20.40;99.90;;;23.17;52.80;98352.34;10317290;28;20237;-70
2023/09/06 07:11:46;;;;;;;7.43;6.65;;;20.80;99.90;;;23.88;51.48;98353.34;10327993;28;20255;-70
2023/09/06 07:16:51;;;;;;;6.38;5.80;;;21.40;99.90;;;24.84;48.25;98349.16;10322826;28;20246;-70
2023/09/06 07:21:54;;;;;;;6.20;5.60;;;22.00;99.90;;;24.95;48.27;98355.34;10319161;28;20231;-70
2023/09/06 07:26:58;;;;;;;7.07;6.45;;;22.30;99.90;;;24.48;49.43;98354.91;10323973;28;20223;-70
2023/09/06 07:32:03;;;;;;;7.13;6.47;;;22.40;99.90;;;23.86;49.11;98358.53;10324935;28;20230;-70
2023/09/06 07:37:06;;;;;;;6.32;5.72;;;22.30;98.70;;;24.17;49.80;98359.78;10319848;28;20269;-71
2023/09/06 07:42:09;;;;;;;6.88;6.28;;;22.50;99.40;;;24.07;51.39;98363.16;10322330;28;20235;-71
2023/09/06 07:47:14;;;;;;;6.25;5.70;;;22.80;99.30;;;24.45;48.73;98352.28;10320308;28;20277;-70
2023/09/06 07:52:17;;;;;;;6.88;6.18;;;23.10;97.50;;;24.44;49.00;98358.38;10321023;28;20227;-70
2023/09/06 07:57:21;;;;;;;6.10;5.55;;;23.10;97.40;;;24.83;48.45;98357.81;10322796;28;20310;-71
2023/09/06 08:02:25;;;;;;;6.50;5.90;;;23.70;96.50;;;24.80;47.31;98356.94;10319378;28;20784;-70
2023/09/06 08:07:29;;;;;;;5.63;5.13;;;23.80;95.40;;;25.35;46.38;98353.03;10321886;28;20255;-70
2023/09/06 08:12:32;;;;;;;6.38;5.22;;;24.40;94.70;;;25.66;45.85;98352.31;10319440;28;20257;-70
2023/09/06 08:17:36;;;;;;;5.90;5.32;;;24.80;93.70;;;25.86;45.65;98357.66;10315342;28;20304;-70
2023/09/06 08:22:40;;;;;;;6.47;5.97;;;25.10;93.40;;;26.20;44.49;98351.66;10318681;28;20231;-71
2023/09/06 08:27:49;;;;;;;5.80;5.30;;;25.30;92.70;;;26.38;43.93;98366.56;10329676;28;20218;-70
2023/09/06 08:32:54;;;;;;;6.25;5.68;;;25.50;92.40;;;26.39;44.64;98352.59;10328027;28;20673;-71
2023/09/06 08:37:57;;;;;;;7.47;5.70;;;25.40;93.10;;;26.58;44.73;98358.75;10327682;28;20245;-69
2023/09/06 08:43:04;;;;;;;5.75;5.28;;;25.70;92.60;;;26.72;44.19;98364.03;10327429;28;20885;-69
2023/09/06 08:48:09;;;;;;;5.95;5.35;;;26.20;91.90;;;26.88;44.04;98371.03;10323926;28;20696;-70
2023/09/06 08:53:16;;;;;;;5.40;4.90;;;26.20;91.80;;;26.93;44.50;98364.03;10329019;28;20235;-69
2023/09/06 08:58:20;;;;;;;5.80;5.30;;;26.30;92.10;;;26.77;44.75;98364.91;10331697;28;20218;-69
2023/09/06 09:03:24;;;;;;;6.05;5.45;;;26.10;92.10;;;27.10;44.70;98361.41;10324235;28;20721;-70
2023/09/06 09:08:30;;;;;;;5.70;5.10;;;26.70;91.90;;;26.66;45.88;98361.41;10327037;28;20230;-70
2023/09/06 09:13:33;;;;;;;5.72;5.22;;;25.90;93.10;;;27.21;44.94;98361.41;10326419;28;20239;-70
2023/09/06 09:18:38;;;;;;;6.07;5.47;;;26.70;92.20;;;27.35;44.31;98361.38;10324206;28;20233;-70
2023/09/06 09:23:47;;;;;;;5.95;5.30;;;26.70;91.80;;;27.43;44.40;98356.13;10332074;28;20242;-70
2023/09/06 09:28:51;;;;;;;5.72;5.22;;;26.80;91.70;;;27.57;44.50;98354.34;10325222;28;20842;-70
2023/09/06 09:33:55;;;;;;;5.93;5.53;;;27.10;91.60;;;27.69;44.45;98346.41;10323466;28;20234;-70
2023/09/06 09:38:59;;;;;;;5.22;4.80;;;27.10;91.50;;;27.90;43.00;98350.78;10324306;28;20238;-70
2023/09/06 09:44:13;;;;;;;6.05;5.45;;;27.30;91.00;;;27.66;43.72;98337.69;10317310;28;20318;-70
2023/09/06 09:49:21;;;;;;;5.70;5.20;;;27.00;91.30;;;27.56;44.10;98342.97;10320656;28;20239;-70
2023/09/06 09:54:25;;;;;;;5.78;4.90;;;27.00;91.20;;;27.56;44.51;98334.22;10327354;28;20250;-70
2023/09/06 09:59:30;;;;;;;5.18;4.70;;;27.10;91.60;;;28.03;43.28;98328.78;10319065;28;20280;-71
2023/09/06 10:04:37;;;;;;;5.70;5.07;;;27.60;90.50;;;28.06;43.04;98328.75;10320288;28;20317;-70
2023/09/06 10:09:43;;;;;;;5.28;4.88;;;27.70;90.30;;;28.12;43.33;98330.47;10321390;28;20273;-70
2023/09/06 10:14:47;;;;;;;5.93;5.35;;;27.60;90.40;;;28.24;43.07;98333.06;10319391;28;20258;-70
2023/09/06 10:19:53;;;;;;;6.10;5.60;;;27.70;90.20;;;28.05;42.09;98326.16;10321057;28;20219;-70
2023/09/06 10:25:06;;;;;;;5.63;5.22;;;27.40;89.20;;;27.82;43.87;98319.25;10325196;28;20222;-70
2023/09/06 10:30:11;;;;;;;5.25;4.85;;;27.40;90.40;;;28.14;42.15;98325.25;10317575;28;20325;-71
2023/09/06 10:35:25;;;;;;;5.07;4.57;;;27.60;89.50;;;28.34;41.50;98317.22;10311386;28;20285;-70
2023/09/06 10:41:11;;;;;;;5.60;5.20;;;27.90;88.50;;;28.01;41.65;98324.41;10313770;28;20222;-70
2023/09/06 10:46:29;;;;;;;5.85;5.35;;;27.40;88.80;;;28.11;42.91;98323.50;10317475;28;20272;-70
2023/09/06 10:51:33;;;;;;;6.13;4.75;;;27.60;90.30;;;28.24;42.67;98319.91;10313458;28;20772;-70
2023/09/06 10:56:37;;;;;;;5.72;5.22;;;27.70;89.30;;;28.01;41.87;98321.78;10316416;28;20222;-71
2023/09/06 11:01:40;;;;;;;5.25;4.75;;;27.40;88.70;;;28.12;42.37;98322.59;10317577;28;20285;-70
2023/09/06 11:06:59;;;;;;;5.72;4.53;;;27.50;89.10;;;28.06;41.62;98312.13;10314950;28;20268;-70
2023/09/06 11:12:05;;;;;;;5.15;4.75;;;27.50;87.60;;;27.91;43.00;98305.19;10315241;28;20222;-71
2023/09/06 11:17:09;;;;;;;5.45;5.00;;;27.30;89.60;;;28.06;41.51;98301.63;10313446;28;20667;-70
2023/09/06 11:22:13;;;;;;;5.00;4.50;;;27.50;88.20;;;27.96;40.17;98289.41;10312793;28;20246;-71
2023/09/06 11:27:21;;;;;;;6.03;5.22;;;27.40;84.80;;;28.09;41.36;98285.81;10318160;28;20714;-70
2023/09/06 11:32:26;;;;;;;5.55;4.80;;;27.50;87.70;;;28.12;41.87;98282.31;10312600;28;20231;-71
2023/09/06 11:37:31;;;;;;;5.07;4.53;;;27.60;87.60;;;28.24;41.21;98279.56;10313379;28;20305;-70
2023/09/06 11:42:34;;;;;;;4.68;4.28;;;27.50;87.10;;;28.10;41.05;98276.16;10314723;28;20230;-70
2023/09/06 11:47:39;;;;;;;5.20;4.90;;;27.50;86.90;;;27.63;43.61;98278.16;10315365;28;20244;-70
2023/09/06 11:52:48;;;;;;;5.00;4.70;;;27.10;89.90;;;27.74;43.79;98276.34;10311113;28;20229;-70
2023/09/06 11:58:02;;;;;;;4.97;4.47;;;27.20;90.60;;;27.59;44.29;98263.28;10319797;28;20226;-70
2023/09/06 12:03:13;;;;;;;5.18;4.78;;;27.10;90.40;;;27.51;44.24;98259.81;10366198;22;20661;-69
2023/09/06 12:08:21;;;;;;;4.95;4.65;;;27.00;90.20;;;27.60;44.27;98259.78;10404640;28;20225;-69
2023/09/06 12:13:27;;;;;;;4.90;4.50;;;27.10;90.60;;;27.38;43.78;98262.47;10392808;28;20253;-69
2023/09/06 12:18:31;;;;;;;5.05;4.65;;;27.00;89.80;;;27.50;44.03;98258.06;10369243;28;20224;-69
2023/09/06 12:23:38;;;;;;;4.97;4.60;;;27.00;90.10;;;27.63;44.07;98251.88;10372863;28;20229;-70
2023/09/06 12:28:41;;;;;;;4.80;4.40;;;27.10;90.20;;;27.63;43.88;98249.25;10372875;28;20221;-69
2023/09/06 12:33:48;;;;;;;4.72;4.32;;;27.10;90.00;;;27.53;42.98;98248.44;10370326;28;20713;-69
2023/09/06 12:38:53;;;;;;;5.25;4.35;;;27.10;88.50;;;27.53;42.12;98232.69;10367309;28;20218;-70
2023/09/06 12:43:56;;;;;;;4.65;4.25;;;27.00;88.20;;;27.58;43.36;98237.88;10373308;28;20609;-67
2023/09/06 12:48:59;;;;;;;5.40;4.13;;;27.00;88.80;;;27.52;43.39;98227.41;10364442;28;20309;-69
2023/09/06 12:54:05;;;;;;;4.50;4.10;;;27.00;88.90;;;27.66;42.69;98228.22;10368496;28;20257;-68
2023/09/06 12:59:09;;;;;;;4.20;3.90;;;27.10;88.20;;;27.56;42.53;98224.78;10369922;28;20676;-70
2023/09/06 13:04:12;;;;;;;5.35;4.32;;;27.10;87.70;;;27.60;42.05;98228.25;10370379;28;20296;-69
2023/09/06 13:09:17;;;;;;;4.93;4.18;;;27.10;87.60;;;27.79;42.34;98218.56;10366956;28;20313;-68
2023/09/06 13:14:21;;;;;;;4.32;3.92;;;27.20;89.30;;;27.76;42.72;98219.41;10368591;28;20229;-68
2023/09/06 13:19:24;;;;;;;4.35;4.05;;;27.20;88.10;;;27.60;42.76;98212.50;10369274;28;20308;-68
2023/09/06 13:24:33;;;;;;;3.70;3.40;;;27.10;88.40;;;27.93;40.77;98208.84;10365750;28;20250;-68
2023/09/06 13:29:36;;;;;;;4.22;3.53;;;27.40;85.30;;;27.75;41.89;98199.25;10364949;28;20599;-68
2023/09/06 13:34:40;;;;;;;3.70;3.40;;;27.30;87.10;;;27.73;42.81;98198.41;10372053;28;20541;-68
2023/09/06 13:39:45;;;;;;;3.90;3.60;;;27.20;87.90;;;27.77;40.98;98199.25;10370065;28;20227;-68
2023/09/06 13:44:48;;;;;;;3.80;3.50;;;27.30;85.50;;;27.87;42.12;98181.69;10363012;28;20276;-68
2023/09/06 13:49:51;;;;;;;3.72;3.08;;;27.30;87.70;;;27.87;40.67;98174.69;10364919;28;20218;-68
2023/09/06 13:54:56;;;;;;;3.63;2.83;;;27.40;84.80;;;28.08;40.33;98178.94;10363943;28;20257;-68
2023/09/06 13:59:59;;;;;;;3.42;3.22;;;27.40;84.50;;;27.90;40.57;98174.69;10360753;28;20238;-68
2023/09/06 14:05:03;;;;;;;3.72;3.30;;;27.30;84.50;;;27.87;40.47;98173.81;10365757;28;20227;-68
2023/09/06 14:10:09;;;;;;;3.47;3.17;;;27.40;84.40;;;27.96;40.99;98176.41;10366024;28;20573;-68
2023/09/06 14:15:13;;;;;;;2.92;2.72;;;27.40;85.00;;;27.84;40.35;98164.19;10365737;28;20279;-68
2023/09/06 14:20:16;;;;;;;3.38;3.10;;;27.40;83.80;;;28.18;38.56;98171.84;10358955;28;20226;-68
2023/09/06 14:25:21;;;;;;;3.22;2.80;;;27.50;82.10;;;28.45;37.40;98160.25;10363975;28;20280;-68
2023/09/06 14:30:24;;;;;;;3.67;2.90;;;28.00;80.20;;;28.58;38.46;98164.47;10367648;28;20669;-68
2023/09/06 14:35:28;;;;;;;3.70;2.88;;;28.10;80.80;;;28.73;36.51;98164.34;10362624;28;20233;-69
2023/09/06 14:40:38;;;;;;;4.05;3.00;;;28.20;78.10;;;28.62;37.42;98150.44;10362553;28;20218;-69
2023/09/06 14:45:42;;;;;;;3.13;2.92;;;28.00;80.20;;;28.49;38.31;98154.06;10364719;28;20258;-69
2023/09/06 14:50:45;;;;;;;3.35;2.90;;;27.90;80.80;;;28.53;38.70;98150.53;10366111;28;20235;-69
2023/09/06 14:55:50;;;;;;;2.53;2.40;;;27.90;82.30;;;28.44;36.76;98153.22;10362882;28;20237;-69
2023/09/06 15:00:53;;;;;;;2.80;2.60;;;27.90;78.30;;;28.56;36.37;98155.75;10365606;28;20319;-69
2023/09/06 15:05:58;;;;;;;3.17;2.72;;;28.00;77.90;;;28.52;35.55;98168.03;10356046;28;20234;-69
2023/09/06 15:11:03;;;;;;;3.03;2.65;;;28.00;76.80;;;28.57;36.98;98154.00;10361314;28;20261;-69
2023/09/06 15:16:06;;;;;;;2.67;2.47;;;28.00;78.00;;;28.47;36.61;98156.72;10361537;28;20280;-69
2023/09/06 15:21:09;;;;;;;3.55;2.63;;;27.90;78.40;;;28.44;36.82;98147.97;10354106;28;20256;-69
2023/09/06 15:26:14;;;;;;;3.03;2.70;;;27.80;78.60;;;28.56;36.43;98153.13;10360483;28;20229;-69
2023/09/06 15:31:20;;;;;;;4.30;2.75;;;28.00;77.70;;;28.45;38.37;98141.84;10362439;28;20317;-69
2023/09/06 15:36:25;;;;;;;3.15;2.85;;;28.00;80.00;;;28.07;38.51;98145.63;10366304;28;20237;-69
2023/09/06 15:41:32;;;;;;;3.42;2.58;;;27.60;81.00;;;27.90;39.63;98139.63;10376573;28;20222;-69
2023/09/06 15:46:36;;;;;;;2.88;2.67;;;27.30;81.40;;;27.84;39.90;98141.44;10371406;28;20309;-69
2023/09/06 15:51:40;;;;;;;2.67;2.45;;;27.20;82.80;;;27.95;39.76;98145.72;10371529;28;20230;-69
2023/09/06 15:56:44;;;;;;;3.40;2.65;;;27.20;83.60;;;27.84;40.79;98136.19;10368853;28;20226;-69
2023/09/06 16:01:48;;;;;;;2.60;2.40;;;27.00;84.20;;;27.76;40.26;98130.09;10367017;28;20228;-69
2023/09/06 16:06:53;;;;;;;2.60;2.38;;;27.00;83.00;;;27.73;38.83;98129.22;10367636;28;20608;-68
2023/09/06 16:11:58;;;;;;;2.53;2.30;;;27.00;81.50;;;27.75;39.62;98130.09;10367440;28;20621;-69
2023/09/06 16:17:03;;;;;;;4.70;2.70;;;26.90;82.30;;;27.85;37.74;98130.03;10367067;28;20222;-69
2023/09/06 16:22:06;;;;;;;2.38;2.17;;;27.10;79.70;;;27.64;39.15;98135.41;10366947;28;20257;-69
2023/09/06 16:27:11;;;;;;;2.40;2.17;;;26.90;81.50;;;27.58;37.91;98138.06;10370868;28;20261;-70
2023/09/06 16:32:15;;;;;;;4.10;2.60;;;26.80;79.40;;;27.67;36.94;98135.41;10368378;28;20230;-70
2023/09/06 16:37:18;;;;;;;3.40;2.60;;;26.90;78.40;;;27.49;37.24;98130.25;10367507;28;20250;-70
2023/09/06 16:42:22;;;;;;;2.63;2.30;;;26.70;78.50;;;27.45;37.91;98128.56;10369142;28;20265;-70
2023/09/06 16:47:25;;;;;;;2.28;2.08;;;26.60;79.50;;;27.26;37.97;98123.38;10366035;28;20232;-69
2023/09/06 16:52:29;;;;;;;2.72;2.53;;;26.40;79.40;;;27.18;37.91;98126.06;10368164;28;20249;-69
2023/09/06 16:57:33;;;;;;;3.03;2.40;;;26.40;79.60;;;27.23;37.98;98128.66;10358809;28;20699;-69
2023/09/06 17:02:36;;;;;;;2.97;2.70;;;26.40;79.20;;;26.92;38.63;98136.63;10359083;28;20241;-69
2023/09/06 17:07:41;;;;;;;2.15;2.05;;;26.00;80.30;;;26.77;39.43;98143.69;10364729;28;20225;-69
2023/09/06 17:12:46;;;;;;;2.97;2.40;;;25.90;81.50;;;26.55;40.36;98142.84;10362174;28;20316;-69
2023/09/06 17:17:50;;;;;;;2.55;2.35;;;25.60;83.50;;;26.22;42.60;98149.88;10360684;28;20599;-69
2023/09/06 17:22:57;;;;;;;2.65;2.45;;;25.20;87.80;;;25.84;43.98;98151.63;10363042;28;20230;-69
2023/09/06 17:28:04;;;;;;;4.18;2.55;;;24.80;88.70;;;25.54;46.34;98157.63;10363503;28;20276;-69
2023/09/06 17:33:14;;;;;;;2.75;2.53;;;24.50;91.20;;;25.27;48.36;98175.91;10363417;28;20229;-70
2023/09/06 17:38:18;;;;;;;2.75;2.55;;;24.30;92.30;;;25.05;49.84;98167.91;10362656;28;20309;-70
2023/09/06 17:43:25;;;;;;;4.40;2.97;;;24.00;93.70;;;24.75;52.25;98170.38;10362891;28;20234;-70
2023/09/06 17:48:29;;;;;;;3.20;2.90;;;23.60;95.60;;;24.48;53.28;98172.81;10365057;28;20287;-70
2023/09/06 17:53:35;;;;;;;3.45;3.10;;;23.40;96.60;;;24.26;55.02;98171.75;10367555;28;20237;-70
2023/09/06 17:58:40;;;;;;;3.03;2.83;;;23.20;98.10;;;24.02;56.59;98182.00;10365808;28;20276;-69
2023/09/06 18:03:50;;;;;;;3.63;2.90;;;23.00;99.60;;;23.62;60.18;98189.44;10364555;28;20299;-70
2023/09/06 18:08:57;;;;;;;3.97;2.70;;;22.50;99.90;;;23.33;61.09;98200.41;10364453;28;20230;-70
2023/09/06 18:14:07;;;;;;;3.75;3.05;;;22.20;99.90;;;23.04;63.23;98200.06;10364908;28;20281;-69
2023/09/06 18:19:11;;;;;;;5.53;3.30;;;21.90;99.90;;;22.72;65.89;98204.81;10363067;28;20226;-69
2023/09/06 18:24:15;;;;;;;7.57;3.40;;;21.70;99.90;;;22.43;66.41;98213.06;10364229;28;20233;-69
2023/09/06 18:29:19;;;;;;;4.43;3.58;;;21.30;99.90;;;22.16;68.60;98213.44;10365132;28;20253;-70
2023/09/06 18:34:22;;;;;;;5.53;3.63;;;21.10;99.90;;;21.80;70.66;98217.16;10361212;28;20264;-69
2023/09/06 18:39:26;;;;;;;5.72;3.60;;;20.70;99.90;;;21.52;72.26;98223.56;10362724;28;20733;-69
2023/09/06 18:44:31;;;;;;;5.07;3.33;;;20.40;99.90;;;21.39;72.61;98226.75;10362033;28;20288;-69
2023/09/06 18:49:36;;;;;;;4.35;3.80;;;20.30;99.90;;;21.23;73.31;98235.03;10362641;28;20735;-68
2023/09/06 18:54:40;;;;;;;3.58;3.30;;;20.20;99.90;;;21.12;72.58;98227.91;10361403;28;20769;-69
2023/09/06 18:59:44;;;;;;;3.90;3.35;;;20.10;99.90;;;21.04;72.48;98232.06;10364944;28;20768;-69
2023/09/06 19:04:48;;;;;;;4.75;3.30;;;20.00;99.90;;;20.78;72.84;98230.63;10361405;28;20321;-69
2023/09/06 19:09:51;;;;;;;3.70;3.40;;;19.90;99.90;;;20.68;72.37;98232.13;10363630;28;20225;-69
2023/09/06 19:14:56;;;;;;;3.55;3.25;;;19.80;99.90;;;20.56;73.67;98237.91;10360805;28;20230;-69
2023/09/06 19:19:59;;;;;;;3.70;3.33;;;19.60;99.90;;;20.30;74.16;98241.56;10360644;28;20226;-69
2023/09/06 19:25:07;;;;;;;4.38;3.38;;;19.40;99.90;;;20.22;74.24;98238.78;10368215;28;20421;-68
2023/09/06 19:30:13;;;;;;;4.00;3.63;;;19.30;99.90;;;20.22;74.48;98238.78;10354049;28;20218;-68
2023/09/06 19:35:16;;;;;;;4.40;3.50;;;19.30;99.90;;;20.14;74.58;98242.88;10357141;28;20234;-68
2023/09/06 19:40:21;;;;;;;4.10;3.70;;;19.20;99.90;;;20.08;74.64;98243.59;10356925;28;20233;-68
2023/09/06 19:45:25;;;;;;;3.90;3.60;;;19.10;99.90;;;19.94;75.27;98250.16;10357695;28;20337;-68
2023/09/06 19:50:29;;;;;;;3.97;3.67;;;19.00;99.90;;;19.78;76.57;98247.16;10359543;28;20756;-68
2023/09/06 19:55:36;;;;;;;4.68;3.90;;;18.90;99.90;;;19.70;76.95;98245.22;10360422;28;20712;-68
2023/09/06 20:00:41;;;;;;;4.38;4.07;;;18.80;99.90;;;19.49;78.28;98250.66;10351848;28;20414;-69
2023/09/06 20:05:44;;;;;;;4.20;3.88;;;18.50;99.90;;;19.42;78.49;98249.56;10353953;28;20230;-68
2023/09/06 20:10:48;;;;;;;4.10;3.80;;;18.50;99.90;;;19.28;79.55;98244.00;10354573;28;20234;-69
2023/09/06 20:15:55;;;;;;;3.90;3.60;;;18.30;99.90;;;19.12;80.53;98242.69;10354626;28;20250;-68
2023/09/06 20:21:05;;;;;;;4.43;4.03;;;18.10;99.90;;;19.04;81.14;98249.34;10357937;28;20265;-68
2023/09/06 20:26:09;;;;;;;4.43;4.03;;;18.00;99.90;;;18.93;81.09;98252.44;10356120;28;20761;-69
2023/09/06 20:31:13;;;;;;;4.10;3.80;;;17.90;99.90;;;18.76;80.91;98246.75;10352362;28;20226;-69
2023/09/06 20:36:17;;;;;;;5.30;4.10;;;17.80;99.90;;;18.72;81.67;98245.75;10346125;28;20240;-69
2023/09/06 20:41:20;;;;;;;6.28;4.40;;;17.80;99.90;;;18.59;81.28;98248.78;10348578;28;20229;-69
2023/09/06 20:46:24;;;;;;;5.32;3.90;;;17.70;99.90;;;18.66;81.40;98255.94;10350307;28;20241;-68
2023/09/06 20:51:28;;;;;;;5.00;4.10;;;17.70;99.90;;;18.62;81.20;98254.06;10350105;28;20230;-68
2023/09/06 20:56:31;;;;;;;4.18;3.78;;;17.60;99.90;;;18.44;81.84;98254.34;10361387;28;20309;-68
2023/09/06 21:01:36;;;;;;;4.30;4.00;;;17.50;99.90;;;18.36;82.68;98255.81;10349817;28;20309;-69
2023/09/06 21:06:40;;;;;;;4.00;3.70;;;17.30;99.90;;;18.20;83.47;98251.84;10348124;28;20306;-69
2023/09/06 21:11:43;;;;;;;5.10;4.18;;;17.20;99.90;;;18.10;83.91;98247.19;10349753;28;20261;-69